sensor_id;sensor_type;location;lat;lon;timestamp;pressure;altitude;pressure_sealevel;temperature;humidity
56042;BME280;48756;41.374;2.066;2023-02-01T00:00:30;102137.97;;;7.01;56.65
56042;BME280;48756;41.374;2.066;2023-02-01T00:02:56;102148.41;;;7.03;56.42
56042;BME280;48756;41.374;2.066;2023-02-01T00:05:21;102140.72;;;7.06;56.91
56042;BME280;48756;41.374;2.066;2023-02-01T00:07:47;102134.84;;;7.13;56.78
56042;BME280;48756;41.374;2.066;2023-02-01T00:10:14;102142.47;;;7.07;57.31
56042;BME280;48756;41.374;2.066;2023-02-01T00:12:39;102139.28;;;7.17;57.03
56042;BME280;48756;41.374;2.066;2023-02-01T00:15:05;102142.59;;;7.12;56.81
56042;BME280;48756;41.374;2.066;2023-02-01T00:17:31;102139.50;;;6.93;57.27
56042;BME280;48756;41.374;2.066;2023-02-01T00:19:56;102133.72;;;7.02;57.09
56042;BME280;48756;41.374;2.066;2023-02-01T00:22:22;102139.00;;;7.06;57.39
56042;BME280;48756;41.374;2.066;2023-02-01T00:24:50;102131.03;;;7.00;57.38
56042;BME280;48756;41.374;2.066;2023-02-01T00:27:16;102126.06;;;7.06;57.16
56042;BME280;48756;41.374;2.066;2023-02-01T00:29:45;102124.41;;;7.10;56.54
56042;BME280;48756;41.374;2.066;2023-02-01T00:32:12;102129.13;;;6.93;57.69
56042;BME280;48756;41.374;2.066;2023-02-01T00:34:37;102135.69;;;7.12;57.50
56042;BME280;48756;41.374;2.066;2023-02-01T00:37:03;102127.34;;;6.91;57.57
56042;BME280;48756;41.374;2.066;2023-02-01T00:39:28;102119.31;;;7.13;57.63
56042;BME280;48756;41.374;2.066;2023-02-01T00:41:54;102118.81;;;6.95;57.70
56042;BME280;48756;41.374;2.066;2023-02-01T00:44:19;102125.69;;;6.94;57.92
56042;BME280;48756;41.374;2.066;2023-02-01T00:46:47;102117.75;;;6.88;57.78
56042;BME280;48756;41.374;2.066;2023-02-01T00:49:13;102118.31;;;6.78;58.50
56042;BME280;48756;41.374;2.066;2023-02-01T00:51:38;102113.09;;;6.76;58.51
56042;BME280;48756;41.374;2.066;2023-02-01T00:54:04;102111.94;;;6.97;57.86
56042;BME280;48756;41.374;2.066;2023-02-01T00:56:29;102108.47;;;6.96;58.03
56042;BME280;48756;41.374;2.066;2023-02-01T00:58:56;102103.38;;;6.99;57.77
56042;BME280;48756;41.374;2.066;2023-02-01T01:01:23;102110.22;;;6.97;57.39
56042;BME280;48756;41.374;2.066;2023-02-01T01:04:09;102097.16;;;6.93;58.23
56042;BME280;48756;41.374;2.066;2023-02-01T01:06:35;102098.59;;;6.82;58.15
56042;BME280;48756;41.374;2.066;2023-02-01T01:09:03;102098.75;;;6.88;57.92
56042;BME280;48756;41.374;2.066;2023-02-01T01:11:32;102101.25;;;6.85;57.96
56042;BME280;48756;41.374;2.066;2023-02-01T01:13:59;102099.47;;;6.82;57.85
56042;BME280;48756;41.374;2.066;2023-02-01T01:16:26;102097.72;;;6.81;58.22
56042;BME280;48756;41.374;2.066;2023-02-01T01:18:53;102100.31;;;6.81;57.86
56042;BME280;48756;41.374;2.066;2023-02-01T01:21:19;102107.84;;;6.73;58.50
56042;BME280;48756;41.374;2.066;2023-02-01T01:23:46;102115.94;;;6.84;58.21
56042;BME280;48756;41.374;2.066;2023-02-01T01:26:20;102111.72;;;6.88;58.50
56042;BME280;48756;41.374;2.066;2023-02-01T01:28:46;102103.59;;;7.07;58.00
56042;BME280;48756;41.374;2.066;2023-02-01T01:31:15;102107.97;;;7.10;57.34
56042;BME280;48756;41.374;2.066;2023-02-01T01:33:40;102113.53;;;6.92;57.58
56042;BME280;48756;41.374;2.066;2023-02-01T01:36:08;102111.09;;;6.98;57.95
56042;BME280;48756;41.374;2.066;2023-02-01T01:38:40;102117.91;;;6.94;58.00
56042;BME280;48756;41.374;2.066;2023-02-01T01:41:06;102112.22;;;6.76;57.83
56042;BME280;48756;41.374;2.066;2023-02-01T01:46:19;102119.56;;;6.32;59.43
56042;BME280;48756;41.374;2.066;2023-02-01T01:48:46;102126.03;;;6.17;59.84
56042;BME280;48756;41.374;2.066;2023-02-01T01:51:14;102127.03;;;6.22;60.06
56042;BME280;48756;41.374;2.066;2023-02-01T01:53:49;102126.22;;;5.96;60.04
56042;BME280;48756;41.374;2.066;2023-02-01T01:56:15;102116.75;;;5.96;61.26
56042;BME280;48756;41.374;2.066;2023-02-01T01:58:41;102125.25;;;5.92;59.99
56042;BME280;48756;41.374;2.066;2023-02-01T02:01:07;102131.66;;;5.78;60.87
56042;BME280;48756;41.374;2.066;2023-02-01T02:03:37;102130.03;;;5.81;61.20
56042;BME280;48756;41.374;2.066;2023-02-01T02:06:12;102131.38;;;5.69;61.00
56042;BME280;48756;41.374;2.066;2023-02-01T02:08:41;102137.00;;;5.57;61.47
56042;BME280;48756;41.374;2.066;2023-02-01T02:11:06;102134.16;;;5.49;61.32
56042;BME280;48756;41.374;2.066;2023-02-01T02:13:38;102136.75;;;5.49;61.47
56042;BME280;48756;41.374;2.066;2023-02-01T02:33:27;102120.63;;;5.83;60.81
56042;BME280;48756;41.374;2.066;2023-02-01T02:36:18;102120.72;;;5.87;60.53
56042;BME280;48756;41.374;2.066;2023-02-01T02:41:43;102120.34;;;5.74;61.61
56042;BME280;48756;41.374;2.066;2023-02-01T02:50:26;102118.75;;;5.52;61.56
56042;BME280;48756;41.374;2.066;2023-02-01T02:53:36;102112.56;;;5.47;62.03
56042;BME280;48756;41.374;2.066;2023-02-01T02:56:23;102113.88;;;5.36;62.14
56042;BME280;48756;41.374;2.066;2023-02-01T02:59:12;102123.81;;;5.49;61.85
56042;BME280;48756;41.374;2.066;2023-02-01T03:01:57;102128.06;;;5.47;62.13
56042;BME280;48756;41.374;2.066;2023-02-01T03:04:42;102118.25;;;5.64;61.62
56042;BME280;48756;41.374;2.066;2023-02-01T03:09:57;102133.25;;;5.47;61.40
56042;BME280;48756;41.374;2.066;2023-02-01T03:12:23;102129.47;;;5.65;61.50
56042;BME280;48756;41.374;2.066;2023-02-01T03:15:10;102122.31;;;5.31;61.45
56042;BME280;48756;41.374;2.066;2023-02-01T03:17:39;102134.63;;;5.38;62.22
56042;BME280;48756;41.374;2.066;2023-02-01T03:20:09;102129.41;;;5.36;62.40
56042;BME280;48756;41.374;2.066;2023-02-01T03:22:37;102134.56;;;5.36;62.12
56042;BME280;48756;41.374;2.066;2023-02-01T03:25:10;102127.28;;;5.25;62.98
56042;BME280;48756;41.374;2.066;2023-02-01T03:27:43;102127.28;;;5.50;62.83
56042;BME280;48756;41.374;2.066;2023-02-01T03:30:28;102121.34;;;5.52;62.39
56042;BME280;48756;41.374;2.066;2023-02-01T03:33:00;102126.13;;;5.42;62.21
56042;BME280;48756;41.374;2.066;2023-02-01T03:35:31;102122.72;;;5.43;62.67
56042;BME280;48756;41.374;2.066;2023-02-01T03:38:09;102121.63;;;5.62;62.36
56042;BME280;48756;41.374;2.066;2023-02-01T03:40:39;102124.84;;;5.54;62.65
56042;BME280;48756;41.374;2.066;2023-02-01T03:43:10;102129.78;;;5.47;62.70
56042;BME280;48756;41.374;2.066;2023-02-01T03:45:43;102128.91;;;5.46;63.56
56042;BME280;48756;41.374;2.066;2023-02-01T03:48:12;102126.19;;;5.69;62.62
56042;BME280;48756;41.374;2.066;2023-02-01T03:50:44;102124.81;;;5.80;63.35
56042;BME280;48756;41.374;2.066;2023-02-01T03:53:14;102131.72;;;6.06;62.39
56042;BME280;48756;41.374;2.066;2023-02-01T03:55:42;102130.63;;;5.98;62.53
56042;BME280;48756;41.374;2.066;2023-02-01T03:58:12;102140.97;;;5.98;62.94
56042;BME280;48756;41.374;2.066;2023-02-01T04:00:39;102142.53;;;6.20;61.26
56042;BME280;48756;41.374;2.066;2023-02-01T04:03:05;102144.00;;;5.87;62.07
56042;BME280;48756;41.374;2.066;2023-02-01T04:05:31;102150.16;;;5.65;62.68
56042;BME280;48756;41.374;2.066;2023-02-01T04:07:58;102154.38;;;5.61;62.94
56042;BME280;48756;41.374;2.066;2023-02-01T04:10:23;102157.09;;;5.66;63.00
56042;BME280;48756;41.374;2.066;2023-02-01T04:12:49;102153.34;;;5.56;64.38
56042;BME280;48756;41.374;2.066;2023-02-01T04:15:15;102155.25;;;5.36;63.91
56042;BME280;48756;41.374;2.066;2023-02-01T04:17:40;102156.91;;;5.34;64.97
56042;BME280;48756;41.374;2.066;2023-02-01T04:20:06;102156.34;;;5.19;65.55
56042;BME280;48756;41.374;2.066;2023-02-01T04:22:32;102150.66;;;5.28;65.60
56042;BME280;48756;41.374;2.066;2023-02-01T04:24:58;102153.53;;;5.37;65.03
56042;BME280;48756;41.374;2.066;2023-02-01T04:27:23;102154.38;;;5.36;65.54
56042;BME280;48756;41.374;2.066;2023-02-01T04:29:49;102151.38;;;5.49;64.96
56042;BME280;48756;41.374;2.066;2023-02-01T04:32:17;102158.25;;;5.48;65.50
56042;BME280;48756;41.374;2.066;2023-02-01T04:34:45;102144.69;;;5.30;65.92
56042;BME280;48756;41.374;2.066;2023-02-01T04:37:10;102150.84;;;5.34;66.58
56042;BME280;48756;41.374;2.066;2023-02-01T04:39:36;102151.25;;;5.44;65.96
56042;BME280;48756;41.374;2.066;2023-02-01T04:42:01;102144.59;;;5.52;65.70
56042;BME280;48756;41.374;2.066;2023-02-01T04:44:27;102153.75;;;5.43;66.12
56042;BME280;48756;41.374;2.066;2023-02-01T04:46:52;102144.13;;;5.39;67.44
56042;BME280;48756;41.374;2.066;2023-02-01T04:49:18;102140.59;;;5.62;66.75
56042;BME280;48756;41.374;2.066;2023-02-01T04:51:50;102135.44;;;5.62;66.82
56042;BME280;48756;41.374;2.066;2023-02-01T04:54:15;102130.69;;;5.74;66.77
56042;BME280;48756;41.374;2.066;2023-02-01T04:56:41;102134.78;;;5.68;66.28
56042;BME280;48756;41.374;2.066;2023-02-01T04:59:07;102141.22;;;5.80;66.03
56042;BME280;48756;41.374;2.066;2023-02-01T05:01:32;102134.25;;;5.78;65.54
56042;BME280;48756;41.374;2.066;2023-02-01T05:03:58;102146.31;;;5.52;66.98
56042;BME280;48756;41.374;2.066;2023-02-01T05:06:23;102146.59;;;5.61;67.29
56042;BME280;48756;41.374;2.066;2023-02-01T05:08:49;102146.53;;;5.85;67.36
56042;BME280;48756;41.374;2.066;2023-02-01T05:11:15;102148.09;;;6.05;66.64
56042;BME280;48756;41.374;2.066;2023-02-01T05:14:02;102153.84;;;6.24;67.28
56042;BME280;48756;41.374;2.066;2023-02-01T05:16:27;102150.50;;;6.28;66.45
56042;BME280;48756;41.374;2.066;2023-02-01T05:18:53;102150.50;;;6.28;66.83
56042;BME280;48756;41.374;2.066;2023-02-01T05:21:19;102159.91;;;6.24;66.59
56042;BME280;48756;41.374;2.066;2023-02-01T05:23:45;102160.28;;;6.09;67.67
56042;BME280;48756;41.374;2.066;2023-02-01T05:26:29;102162.16;;;6.13;67.29
56042;BME280;48756;41.374;2.066;2023-02-01T05:28:54;102157.69;;;6.09;67.16
56042;BME280;48756;41.374;2.066;2023-02-01T05:31:20;102168.31;;;6.17;67.31
56042;BME280;48756;41.374;2.066;2023-02-01T05:33:46;102168.72;;;6.31;67.38
56042;BME280;48756;41.374;2.066;2023-02-01T05:36:12;102167.28;;;5.87;67.27
56042;BME280;48756;41.374;2.066;2023-02-01T05:38:37;102168.44;;;5.69;67.05
56042;BME280;48756;41.374;2.066;2023-02-01T05:41:03;102183.88;;;5.66;67.25
56042;BME280;48756;41.374;2.066;2023-02-01T05:43:29;102182.72;;;5.58;68.31
56042;BME280;48756;41.374;2.066;2023-02-01T05:45:54;102179.81;;;5.74;67.98
56042;BME280;48756;41.374;2.066;2023-02-01T05:48:20;102185.44;;;5.88;68.15
56042;BME280;48756;41.374;2.066;2023-02-01T05:50:45;102173.53;;;6.19;68.12
56042;BME280;48756;41.374;2.066;2023-02-01T05:53:12;102180.75;;;6.29;67.05
56042;BME280;48756;41.374;2.066;2023-02-01T05:55:37;102184.53;;;6.11;68.33
56042;BME280;48756;41.374;2.066;2023-02-01T05:58:03;102180.06;;;6.07;67.67
56042;BME280;48756;41.374;2.066;2023-02-01T06:00:30;102189.84;;;6.16;67.95
56042;BME280;48756;41.374;2.066;2023-02-01T06:02:55;102204.72;;;5.96;67.41
56042;BME280;48756;41.374;2.066;2023-02-01T06:05:21;102200.34;;;5.94;67.69
56042;BME280;48756;41.374;2.066;2023-02-01T06:07:46;102199.03;;;5.82;67.29
56042;BME280;48756;41.374;2.066;2023-02-01T06:10:12;102204.16;;;5.56;67.22
56042;BME280;48756;41.374;2.066;2023-02-01T06:12:38;102201.16;;;5.67;67.29
56042;BME280;48756;41.374;2.066;2023-02-01T06:15:04;102206.13;;;5.63;67.73
56042;BME280;48756;41.374;2.066;2023-02-01T06:17:30;102205.44;;;5.67;69.04
56042;BME280;48756;41.374;2.066;2023-02-01T06:19:56;102211.09;;;5.57;69.11
56042;BME280;48756;41.374;2.066;2023-02-01T06:22:22;102215.25;;;5.51;69.07
56042;BME280;48756;41.374;2.066;2023-02-01T06:24:50;102213.75;;;5.34;69.93
56042;BME280;48756;41.374;2.066;2023-02-01T06:27:16;102214.03;;;5.18;70.66
56042;BME280;48756;41.374;2.066;2023-02-01T06:29:41;102214.59;;;5.33;70.06
56042;BME280;48756;41.374;2.066;2023-02-01T06:32:07;102220.75;;;5.37;70.22
56042;BME280;48756;41.374;2.066;2023-02-01T06:34:32;102222.19;;;5.29;69.63
56042;BME280;48756;41.374;2.066;2023-02-01T06:36:58;102217.53;;;5.20;70.34
56042;BME280;48756;41.374;2.066;2023-02-01T06:39:26;102210.56;;;5.17;71.02
56042;BME280;48756;41.374;2.066;2023-02-01T06:41:53;102215.53;;;5.35;69.79
56042;BME280;48756;41.374;2.066;2023-02-01T06:44:19;102205.25;;;5.13;71.30
56042;BME280;48756;41.374;2.066;2023-02-01T06:46:46;102214.28;;;5.24;70.34
56042;BME280;48756;41.374;2.066;2023-02-01T06:49:11;102214.44;;;5.29;71.10
56042;BME280;48756;41.374;2.066;2023-02-01T06:51:37;102215.69;;;5.40;71.25
56042;BME280;48756;41.374;2.066;2023-02-01T06:54:02;102219.19;;;5.18;70.54
56042;BME280;48756;41.374;2.066;2023-02-01T06:56:28;102220.53;;;5.07;71.84
56042;BME280;48756;41.374;2.066;2023-02-01T06:58:57;102221.19;;;5.01;72.21
56042;BME280;48756;41.374;2.066;2023-02-01T07:01:22;102222.91;;;5.01;72.22
56042;BME280;48756;41.374;2.066;2023-02-01T07:03:49;102221.25;;;5.27;71.72
56042;BME280;48756;41.374;2.066;2023-02-01T07:06:16;102222.75;;;5.44;70.51
56042;BME280;48756;41.374;2.066;2023-02-01T07:08:43;102228.84;;;5.22;71.86
56042;BME280;48756;41.374;2.066;2023-02-01T07:11:12;102237.06;;;5.60;70.94
56042;BME280;48756;41.374;2.066;2023-02-01T07:13:38;102237.94;;;5.60;70.07
56042;BME280;48756;41.374;2.066;2023-02-01T07:16:07;102238.75;;;5.59;69.87
56042;BME280;48756;41.374;2.066;2023-02-01T07:18:34;102238.22;;;5.68;69.28
56042;BME280;48756;41.374;2.066;2023-02-01T07:21:02;102246.53;;;5.35;70.29
56042;BME280;48756;41.374;2.066;2023-02-01T07:23:30;102249.69;;;5.50;70.45
56042;BME280;48756;41.374;2.066;2023-02-01T07:25:58;102251.22;;;5.45;71.14
56042;BME280;48756;41.374;2.066;2023-02-01T07:28:24;102255.28;;;5.39;71.14
56042;BME280;48756;41.374;2.066;2023-02-01T07:30:50;102253.56;;;5.63;70.56
56042;BME280;48756;41.374;2.066;2023-02-01T07:33:21;102254.84;;;5.50;71.41
56042;BME280;48756;41.374;2.066;2023-02-01T07:35:47;102261.06;;;5.81;69.80
56042;BME280;48756;41.374;2.066;2023-02-01T07:38:13;102255.41;;;5.90;70.14
56042;BME280;48756;41.374;2.066;2023-02-01T07:40:39;102266.00;;;5.73;69.61
56042;BME280;48756;41.374;2.066;2023-02-01T07:43:07;102267.97;;;5.57;70.61
56042;BME280;48756;41.374;2.066;2023-02-01T07:45:34;102266.03;;;5.49;71.10
56042;BME280;48756;41.374;2.066;2023-02-01T07:48:03;102269.47;;;5.26;72.83
56042;BME280;48756;41.374;2.066;2023-02-01T07:50:29;102264.25;;;5.48;71.96
56042;BME280;48756;41.374;2.066;2023-02-01T07:52:55;102270.31;;;5.49;72.54
56042;BME280;48756;41.374;2.066;2023-02-01T07:55:20;102262.56;;;5.49;72.08
56042;BME280;48756;41.374;2.066;2023-02-01T07:57:46;102269.25;;;5.68;71.32
56042;BME280;48756;41.374;2.066;2023-02-01T08:00:13;102266.72;;;5.69;71.14
56042;BME280;48756;41.374;2.066;2023-02-01T08:03:00;102271.78;;;5.90;70.85
56042;BME280;48756;41.374;2.066;2023-02-01T08:05:26;102271.63;;;5.87;70.15
56042;BME280;48756;41.374;2.066;2023-02-01T08:07:52;102277.75;;;5.89;70.21
56042;BME280;48756;41.374;2.066;2023-02-01T08:10:20;102275.41;;;5.71;69.79
56042;BME280;48756;41.374;2.066;2023-02-01T08:12:46;102267.34;;;5.88;70.25
56042;BME280;48756;41.374;2.066;2023-02-01T08:15:13;102273.81;;;5.75;69.42
56042;BME280;48756;41.374;2.066;2023-02-01T08:17:39;102273.75;;;5.97;68.49
56042;BME280;48756;41.374;2.066;2023-02-01T08:20:05;102272.34;;;5.83;68.79
56042;BME280;48756;41.374;2.066;2023-02-01T08:22:32;102273.13;;;5.80;68.85
56042;BME280;48756;41.374;2.066;2023-02-01T08:24:57;102277.41;;;6.04;67.64
56042;BME280;48756;41.374;2.066;2023-02-01T08:27:26;102279.59;;;5.92;67.24
56042;BME280;48756;41.374;2.066;2023-02-01T08:29:52;102282.53;;;6.02;67.23
56042;BME280;48756;41.374;2.066;2023-02-01T08:32:19;102280.34;;;6.13;65.95
56042;BME280;48756;41.374;2.066;2023-02-01T08:34:44;102290.06;;;6.20;66.06
56042;BME280;48756;41.374;2.066;2023-02-01T08:37:13;102280.94;;;6.58;65.36
56042;BME280;48756;41.374;2.066;2023-02-01T08:39:38;102283.41;;;6.55;65.24
56042;BME280;48756;41.374;2.066;2023-02-01T08:42:04;102286.84;;;6.81;64.12
56042;BME280;48756;41.374;2.066;2023-02-01T08:44:48;102284.97;;;6.77;63.93
56042;BME280;48756;41.374;2.066;2023-02-01T08:47:16;102285.63;;;6.98;63.66
56042;BME280;48756;41.374;2.066;2023-02-01T08:49:42;102296.81;;;7.26;63.82
56042;BME280;48756;41.374;2.066;2023-02-01T08:52:07;102306.91;;;7.17;63.50
56042;BME280;48756;41.374;2.066;2023-02-01T08:54:33;102305.06;;;7.43;63.09
56042;BME280;48756;41.374;2.066;2023-02-01T08:56:58;102301.81;;;7.50;62.82
56042;BME280;48756;41.374;2.066;2023-02-01T08:59:26;102299.13;;;7.47;62.90
56042;BME280;48756;41.374;2.066;2023-02-01T09:01:52;102305.06;;;7.43;62.36
56042;BME280;48756;41.374;2.066;2023-02-01T09:04:17;102310.97;;;7.37;62.35
56042;BME280;48756;41.374;2.066;2023-02-01T09:06:43;102310.44;;;7.49;61.73
56042;BME280;48756;41.374;2.066;2023-02-01T09:09:08;102306.56;;;7.34;62.98
56042;BME280;48756;41.374;2.066;2023-02-01T09:11:37;102312.41;;;7.27;62.58
56042;BME280;48756;41.374;2.066;2023-02-01T09:14:02;102310.53;;;7.23;64.04
56042;BME280;48756;41.374;2.066;2023-02-01T09:16:28;102320.03;;;7.23;63.18
56042;BME280;48756;41.374;2.066;2023-02-01T09:18:54;102321.00;;;7.25;62.81
56042;BME280;48756;41.374;2.066;2023-02-01T09:21:20;102312.19;;;7.50;62.59
56042;BME280;48756;41.374;2.066;2023-02-01T09:23:45;102314.03;;;7.54;62.00
56042;BME280;48756;41.374;2.066;2023-02-01T09:26:14;102313.97;;;7.82;61.30
56042;BME280;48756;41.374;2.066;2023-02-01T09:28:39;102314.06;;;8.18;61.40
56042;BME280;48756;41.374;2.066;2023-02-01T09:31:05;102315.09;;;8.25;61.14
56042;BME280;48756;41.374;2.066;2023-02-01T09:33:30;102319.09;;;8.14;61.29
56042;BME280;48756;41.374;2.066;2023-02-01T09:36:01;102315.22;;;7.96;61.24
56042;BME280;48756;41.374;2.066;2023-02-01T09:38:27;102325.91;;;8.40;60.13
56042;BME280;48756;41.374;2.066;2023-02-01T09:40:53;102312.34;;;8.53;59.88
56042;BME280;48756;41.374;2.066;2023-02-01T09:43:44;102330.28;;;8.43;59.46
56042;BME280;48756;41.374;2.066;2023-02-01T09:46:26;102319.72;;;8.71;59.93
56042;BME280;48756;41.374;2.066;2023-02-01T09:48:57;102320.31;;;8.97;58.68
56042;BME280;48756;41.374;2.066;2023-02-01T09:51:37;102318.59;;;8.98;58.73
56042;BME280;48756;41.374;2.066;2023-02-01T09:59:26;102321.53;;;9.13;57.77
56042;BME280;48756;41.374;2.066;2023-02-01T10:01:55;102317.34;;;9.19;58.41
56042;BME280;48756;41.374;2.066;2023-02-01T10:04:21;102328.13;;;9.38;57.41
56042;BME280;48756;41.374;2.066;2023-02-01T10:07:20;102325.06;;;9.16;57.02
56042;BME280;48756;41.374;2.066;2023-02-01T10:12:53;102322.09;;;9.39;57.84
56042;BME280;48756;41.374;2.066;2023-02-01T10:18:32;102331.97;;;10.00;55.50
56042;BME280;48756;41.374;2.066;2023-02-01T10:26:33;102322.28;;;9.93;55.59
56042;BME280;48756;41.374;2.066;2023-02-01T10:29:02;102322.78;;;10.19;54.93
56042;BME280;48756;41.374;2.066;2023-02-01T10:31:31;102325.69;;;9.89;55.72
56042;BME280;48756;41.374;2.066;2023-02-01T10:34:21;102322.38;;;9.96;55.49
56042;BME280;48756;41.374;2.066;2023-02-01T10:39:27;102322.13;;;10.31;54.13
56042;BME280;48756;41.374;2.066;2023-02-01T10:41:54;102325.63;;;10.33;53.85
56042;BME280;48756;41.374;2.066;2023-02-01T10:44:27;102328.69;;;10.62;53.54
56042;BME280;48756;41.374;2.066;2023-02-01T10:46:54;102323.78;;;10.80;52.76
56042;BME280;48756;41.374;2.066;2023-02-01T10:49:43;102313.69;;;11.03;52.87
56042;BME280;48756;41.374;2.066;2023-02-01T10:52:16;102314.03;;;11.30;51.33
56042;BME280;48756;41.374;2.066;2023-02-01T10:54:42;102314.91;;;11.31;51.03
56042;BME280;48756;41.374;2.066;2023-02-01T10:57:10;102318.03;;;11.02;52.07
56042;BME280;48756;41.374;2.066;2023-02-01T10:59:44;102312.22;;;11.25;52.02
56042;BME280;48756;41.374;2.066;2023-02-01T11:02:19;102309.91;;;11.48;50.13
56042;BME280;48756;41.374;2.066;2023-02-01T11:04:48;102308.66;;;11.17;51.61
56042;BME280;48756;41.374;2.066;2023-02-01T11:07:25;102301.72;;;11.19;51.37
56042;BME280;48756;41.374;2.066;2023-02-01T11:09:54;102296.00;;;11.50;50.16
56042;BME280;48756;41.374;2.066;2023-02-01T11:12:32;102287.28;;;11.48;51.40
56042;BME280;48756;41.374;2.066;2023-02-01T11:15:21;102287.03;;;11.27;51.16
56042;BME280;48756;41.374;2.066;2023-02-01T11:17:47;102280.50;;;11.62;50.58
56042;BME280;48756;41.374;2.066;2023-02-01T11:22:59;102269.94;;;11.52;50.31
56042;BME280;48756;41.374;2.066;2023-02-01T11:25:25;102263.34;;;11.84;49.31
56042;BME280;48756;41.374;2.066;2023-02-01T11:27:53;102260.00;;;11.99;49.45
56042;BME280;48756;41.374;2.066;2023-02-01T11:30:36;102263.41;;;11.90;49.68
56042;BME280;48756;41.374;2.066;2023-02-01T11:33:05;102258.22;;;11.96;48.97
56042;BME280;48756;41.374;2.066;2023-02-01T11:35:37;102254.91;;;12.14;48.91
56042;BME280;48756;41.374;2.066;2023-02-01T11:38:13;102252.28;;;12.13;48.29
56042;BME280;48756;41.374;2.066;2023-02-01T11:40:42;102242.91;;;12.39;48.26
56042;BME280;48756;41.374;2.066;2023-02-01T11:43:22;102239.38;;;12.33;48.62
56042;BME280;48756;41.374;2.066;2023-02-01T11:46:01;102234.22;;;12.43;47.36
56042;BME280;48756;41.374;2.066;2023-02-01T11:48:29;102228.16;;;12.46;48.08
56042;BME280;48756;41.374;2.066;2023-02-01T11:55:55;102212.63;;;12.75;47.47
56042;BME280;48756;41.374;2.066;2023-02-01T11:58:49;102202.19;;;12.82;46.51
56042;BME280;48756;41.374;2.066;2023-02-01T12:04:15;102182.16;;;12.83;47.02
56042;BME280;48756;41.374;2.066;2023-02-01T12:06:57;102183.16;;;13.14;46.54
56042;BME280;48756;41.374;2.066;2023-02-01T12:09:39;102184.78;;;12.86;47.42
56042;BME280;48756;41.374;2.066;2023-02-01T12:18:45;102164.06;;;13.65;44.70
56042;BME280;48756;41.374;2.066;2023-02-01T12:21:39;102147.44;;;13.17;44.61
56042;BME280;48756;41.374;2.066;2023-02-01T12:33:06;102116.91;;;13.58;44.09
56042;BME280;48756;41.374;2.066;2023-02-01T12:43:53;102076.72;;;13.95;43.37
56042;BME280;48756;41.374;2.066;2023-02-01T12:46:31;102068.84;;;13.97;43.55
56042;BME280;48756;41.374;2.066;2023-02-01T12:51:38;102056.59;;;14.11;43.16
56042;BME280;48756;41.374;2.066;2023-02-01T12:54:36;102066.22;;;14.07;44.04
56042;BME280;48756;41.374;2.066;2023-02-01T12:57:12;102053.06;;;14.21;42.78
56042;BME280;48756;41.374;2.066;2023-02-01T13:02:38;102036.47;;;14.15;43.55
56042;BME280;48756;41.374;2.066;2023-02-01T13:05:21;102033.81;;;14.22;43.33
56042;BME280;48756;41.374;2.066;2023-02-01T13:08:08;102034.72;;;14.20;43.64
56042;BME280;48756;41.374;2.066;2023-02-01T13:10:40;102035.47;;;14.57;43.03
56042;BME280;48756;41.374;2.066;2023-02-01T13:13:16;102039.88;;;14.46;43.22
56042;BME280;48756;41.374;2.066;2023-02-01T13:15:51;102034.66;;;14.49;43.36
56042;BME280;48756;41.374;2.066;2023-02-01T13:18:22;102029.41;;;14.38;43.30
56042;BME280;48756;41.374;2.066;2023-02-01T13:21:20;102035.44;;;14.63;42.59
56042;BME280;48756;41.374;2.066;2023-02-01T13:23:48;102040.63;;;14.72;42.40
56042;BME280;48756;41.374;2.066;2023-02-01T13:26:15;102038.13;;;14.38;42.96
56042;BME280;48756;41.374;2.066;2023-02-01T13:28:59;102039.81;;;14.62;42.94
56042;BME280;48756;41.374;2.066;2023-02-01T13:39:59;102029.41;;;14.44;43.48
56042;BME280;48756;41.374;2.066;2023-02-01T13:42:31;102028.50;;;14.48;43.61
56042;BME280;48756;41.374;2.066;2023-02-01T13:45:05;102029.38;;;14.53;43.02
56042;BME280;48756;41.374;2.066;2023-02-01T13:47:41;102032.78;;;14.67;42.92
56042;BME280;48756;41.374;2.066;2023-02-01T13:50:34;102034.50;;;14.68;45.89
56042;BME280;48756;41.374;2.066;2023-02-01T13:55:54;102027.44;;;14.81;47.09
56042;BME280;48756;41.374;2.066;2023-02-01T13:58:28;102023.97;;;14.81;46.98
56042;BME280;48756;41.374;2.066;2023-02-01T14:03:56;102025.88;;;14.48;47.51
56042;BME280;48756;41.374;2.066;2023-02-01T14:19:18;102033.56;;;14.82;49.02
56042;BME280;48756;41.374;2.066;2023-02-01T14:21:55;102039.63;;;14.91;48.43
56042;BME280;48756;41.374;2.066;2023-02-01T14:24:32;102042.50;;;14.47;49.45
56042;BME280;48756;41.374;2.066;2023-02-01T14:27:00;102031.03;;;14.66;49.25
56042;BME280;48756;41.374;2.066;2023-02-01T14:29:34;102032.78;;;14.67;49.18
56042;BME280;48756;41.374;2.066;2023-02-01T14:32:06;102040.66;;;14.63;49.43
56042;BME280;48756;41.374;2.066;2023-02-01T14:44:47;102061.84;;;14.09;51.24
56042;BME280;48756;41.374;2.066;2023-02-01T15:01:21;102054.06;;;13.81;51.98
56042;BME280;48756;41.374;2.066;2023-02-01T15:04:04;102068.00;;;13.78;51.82
56042;BME280;48756;41.374;2.066;2023-02-01T15:09:12;102067.16;;;13.47;51.85
56042;BME280;48756;41.374;2.066;2023-02-01T15:14:44;102070.66;;;13.54;53.31
56042;BME280;48756;41.374;2.066;2023-02-01T15:17:25;102072.41;;;13.61;53.18
56042;BME280;48756;41.374;2.066;2023-02-01T15:20:03;102081.13;;;13.44;53.66
56042;BME280;48756;41.374;2.066;2023-02-01T15:22:30;102090.72;;;13.33;54.46
56042;BME280;48756;41.374;2.066;2023-02-01T15:24:58;102082.00;;;13.43;55.15
56042;BME280;48756;41.374;2.066;2023-02-01T15:27:26;102077.63;;;13.52;53.83
56042;BME280;48756;41.374;2.066;2023-02-01T15:29:52;102085.44;;;13.15;54.73
56042;BME280;48756;41.374;2.066;2023-02-01T15:32:32;102088.13;;;13.38;54.60
56042;BME280;48756;41.374;2.066;2023-02-01T15:34:59;102090.72;;;13.26;55.43
56042;BME280;48756;41.374;2.066;2023-02-01T15:37:26;102088.03;;;13.04;56.08
56042;BME280;48756;41.374;2.066;2023-02-01T15:42:53;102092.41;;;13.10;56.21